sensor_id;sensor_type;location;lat;lon;timestamp;P1;durP1;ratioP1;P2;durP2;ratioP2
51558;SDS011;61650;48.882;2.092;2023-04-01T00:00:23;1.60;;;0.97;;
51558;SDS011;61650;48.882;2.092;2023-04-01T00:02:49;2.80;;;0.90;;
51558;SDS011;61650;48.882;2.092;2023-04-01T00:05:15;2.10;;;1.23;;
51558;SDS011;61650;48.882;2.092;2023-04-01T00:07:41;1.73;;;1.03;;
51558;SDS011;61650;48.882;2.092;2023-04-01T00:10:08;4.60;;;1.93;;
51558;SDS011;61650;48.882;2.092;2023-04-01T00:12:36;2.90;;;0.97;;
51558;SDS011;61650;48.882;2.092;2023-04-01T00:15:03;1.60;;;0.90;;
51558;SDS011;61650;48.882;2.092;2023-04-01T00:17:31;1.93;;;0.73;;
51558;SDS011;61650;48.882;2.092;2023-04-01T00:19:57;1.23;;;0.90;;
51558;SDS011;61650;48.882;2.092;2023-04-01T00:22:23;3.63;;;0.87;;
51558;SDS011;61650;48.882;2.092;2023-04-01T00:24:49;1.20;;;0.90;;
51558;SDS011;61650;48.882;2.092;2023-04-01T00:27:15;2.13;;;0.80;;
51558;SDS011;61650;48.882;2.092;2023-04-01T00:29:44;2.90;;;0.73;;
51558;SDS011;61650;48.882;2.092;2023-04-01T00:32:11;2.20;;;0.90;;
51558;SDS011;61650;48.882;2.092;2023-04-01T00:34:37;1.90;;;0.90;;
51558;SDS011;61650;48.882;2.092;2023-04-01T00:37:04;2.60;;;0.80;;
51558;SDS011;61650;48.882;2.092;2023-04-01T00:39:30;2.13;;;0.90;;
51558;SDS011;61650;48.882;2.092;2023-04-01T00:41:57;4.17;;;1.17;;
51558;SDS011;61650;48.882;2.092;2023-04-01T00:44:26;5.00;;;1.33;;
51558;SDS011;61650;48.882;2.092;2023-04-01T00:46:53;1.60;;;0.87;;
51558;SDS011;61650;48.882;2.092;2023-04-01T00:49:20;2.27;;;1.10;;
51558;SDS011;61650;48.882;2.092;2023-04-01T00:51:58;2.25;;;1.00;;
51558;SDS011;61650;48.882;2.092;2023-04-01T00:54:26;2.28;;;0.75;;
51558;SDS011;61650;48.882;2.092;2023-04-01T00:57:08;3.57;;;0.80;;
51558;SDS011;61650;48.882;2.092;2023-04-01T00:59:45;2.80;;;1.27;;
51558;SDS011;61650;48.882;2.092;2023-04-01T01:02:14;2.87;;;0.90;;
51558;SDS011;61650;48.882;2.092;2023-04-01T01:04:41;2.70;;;1.03;;
51558;SDS011;61650;48.882;2.092;2023-04-01T01:12:35;1.40;;;0.70;;
51558;SDS011;61650;48.882;2.092;2023-04-01T01:15:26;2.10;;;0.90;;
51558;SDS011;61650;48.882;2.092;2023-04-01T01:23:49;1.45;;;0.85;;
51558;SDS011;61650;48.882;2.092;2023-04-01T01:31:57;3.00;;;1.27;;
51558;SDS011;61650;48.882;2.092;2023-04-01T01:37:32;0.80;;;0.60;;
51558;SDS011;61650;48.882;2.092;2023-04-01T01:40:00;2.20;;;1.00;;
51558;SDS011;61650;48.882;2.092;2023-04-01T01:42:30;1.20;;;0.80;;
51558;SDS011;61650;48.882;2.092;2023-04-01T01:44:57;4.60;;;1.10;;
51558;SDS011;61650;48.882;2.092;2023-04-01T01:47:24;4.93;;;0.93;;
51558;SDS011;61650;48.882;2.092;2023-04-01T01:49:52;1.42;;;0.70;;
51558;SDS011;61650;48.882;2.092;2023-04-01T01:52:19;2.25;;;1.55;;
51558;SDS011;61650;48.882;2.092;2023-04-01T01:54:50;3.53;;;1.17;;
51558;SDS011;61650;48.882;2.092;2023-04-01T01:57:18;3.25;;;0.80;;
51558;SDS011;61650;48.882;2.092;2023-04-01T01:59:48;2.45;;;0.70;;
51558;SDS011;61650;48.882;2.092;2023-04-01T02:02:16;7.75;;;1.23;;
51558;SDS011;61650;48.882;2.092;2023-04-01T02:04:42;6.30;;;1.23;;
51558;SDS011;61650;48.882;2.092;2023-04-01T02:07:18;2.55;;;0.80;;
51558;SDS011;61650;48.882;2.092;2023-04-01T02:09:48;3.47;;;1.17;;
51558;SDS011;61650;48.882;2.092;2023-04-01T02:12:14;2.70;;;0.80;;
51558;SDS011;61650;48.882;2.092;2023-04-01T02:14:56;4.18;;;1.10;;
51558;SDS011;61650;48.882;2.092;2023-04-01T02:17:34;8.43;;;0.83;;
51558;SDS011;61650;48.882;2.092;2023-04-01T02:20:06;2.85;;;0.90;;
51558;SDS011;61650;48.882;2.092;2023-04-01T02:22:51;4.40;;;1.10;;
51558;SDS011;61650;48.882;2.092;2023-04-01T02:25:22;6.65;;;0.80;;
51558;SDS011;61650;48.882;2.092;2023-04-01T02:27:51;3.53;;;0.80;;
51558;SDS011;61650;48.882;2.092;2023-04-01T02:30:17;4.63;;;1.02;;
51558;SDS011;61650;48.882;2.092;2023-04-01T02:32:44;2.75;;;1.20;;
51558;SDS011;61650;48.882;2.092;2023-04-01T02:35:11;4.43;;;1.40;;
51558;SDS011;61650;48.882;2.092;2023-04-01T02:37:40;2.58;;;1.00;;
51558;SDS011;61650;48.882;2.092;2023-04-01T02:40:07;1.70;;;0.70;;
51558;SDS011;61650;48.882;2.092;2023-04-01T02:42:35;2.33;;;0.77;;
51558;SDS011;61650;48.882;2.092;2023-04-01T02:45:01;9.67;;;1.00;;
51558;SDS011;61650;48.882;2.092;2023-04-01T02:47:27;3.60;;;0.73;;
51558;SDS011;61650;48.882;2.092;2023-04-01T02:49:53;2.37;;;0.77;;
51558;SDS011;61650;48.882;2.092;2023-04-01T02:52:32;3.63;;;0.80;;
51558;SDS011;61650;48.882;2.092;2023-04-01T02:54:58;6.70;;;0.90;;
51558;SDS011;61650;48.882;2.092;2023-04-01T02:57:24;4.63;;;1.00;;
51558;SDS011;61650;48.882;2.092;2023-04-01T02:59:50;1.23;;;0.68;;
51558;SDS011;61650;48.882;2.092;2023-04-01T03:02:16;4.07;;;1.00;;
51558;SDS011;61650;48.882;2.092;2023-04-01T03:04:42;2.88;;;0.90;;
51558;SDS011;61650;48.882;2.092;2023-04-01T03:07:07;5.57;;;1.17;;
51558;SDS011;61650;48.882;2.092;2023-04-01T03:09:35;3.28;;;0.77;;
51558;SDS011;61650;48.882;2.092;2023-04-01T03:12:01;2.00;;;0.65;;
51558;SDS011;61650;48.882;2.092;2023-04-01T03:14:27;6.00;;;0.90;;
51558;SDS011;61650;48.882;2.092;2023-04-01T03:16:52;5.97;;;1.20;;
51558;SDS011;61650;48.882;2.092;2023-04-01T03:19:19;3.55;;;1.20;;
51558;SDS011;61650;48.882;2.092;2023-04-01T03:21:44;4.20;;;1.00;;
51558;SDS011;61650;48.882;2.092;2023-04-01T03:24:10;1.47;;;0.80;;
51558;SDS011;61650;48.882;2.092;2023-04-01T03:26:35;4.77;;;1.30;;
51558;SDS011;61650;48.882;2.092;2023-04-01T03:29:01;1.63;;;0.80;;
51558;SDS011;61650;48.882;2.092;2023-04-01T03:31:27;1.33;;;0.70;;
51558;SDS011;61650;48.882;2.092;2023-04-01T03:33:52;1.40;;;0.80;;
51558;SDS011;61650;48.882;2.092;2023-04-01T03:36:18;0.80;;;0.50;;
51558;SDS011;61650;48.882;2.092;2023-04-01T03:38:44;2.57;;;1.00;;
51558;SDS011;61650;48.882;2.092;2023-04-01T03:41:14;4.47;;;0.93;;
51558;SDS011;61650;48.882;2.092;2023-04-01T03:43:40;3.05;;;0.90;;
51558;SDS011;61650;48.882;2.092;2023-04-01T03:46:06;3.13;;;0.82;;
51558;SDS011;61650;48.882;2.092;2023-04-01T03:48:32;4.03;;;1.03;;
51558;SDS011;61650;48.882;2.092;2023-04-01T03:50:58;4.70;;;1.00;;
51558;SDS011;61650;48.882;2.092;2023-04-01T03:53:23;3.77;;;1.07;;
51558;SDS011;61650;48.882;2.092;2023-04-01T03:55:49;5.60;;;1.23;;
51558;SDS011;61650;48.882;2.092;2023-04-01T03:58:16;2.67;;;1.17;;
51558;SDS011;61650;48.882;2.092;2023-04-01T04:00:42;2.30;;;0.80;;
51558;SDS011;61650;48.882;2.092;2023-04-01T04:03:08;3.07;;;0.77;;
51558;SDS011;61650;48.882;2.092;2023-04-01T04:05:33;5.07;;;1.10;;
51558;SDS011;61650;48.882;2.092;2023-04-01T04:07:59;1.50;;;0.87;;
51558;SDS011;61650;48.882;2.092;2023-04-01T04:10:25;3.80;;;0.90;;
51558;SDS011;61650;48.882;2.092;2023-04-01T04:12:51;1.70;;;1.20;;
51558;SDS011;61650;48.882;2.092;2023-04-01T04:15:17;3.72;;;1.30;;
51558;SDS011;61650;48.882;2.092;2023-04-01T04:17:46;4.83;;;0.70;;
51558;SDS011;61650;48.882;2.092;2023-04-01T04:20:12;7.10;;;0.93;;
51558;SDS011;61650;48.882;2.092;2023-04-01T04:22:38;1.90;;;0.90;;
51558;SDS011;61650;48.882;2.092;2023-04-01T04:25:04;2.50;;;0.73;;
51558;SDS011;61650;48.882;2.092;2023-04-01T04:27:30;1.80;;;0.63;;
51558;SDS011;61650;48.882;2.092;2023-04-01T04:29:55;2.37;;;0.93;;
51558;SDS011;61650;48.882;2.092;2023-04-01T04:32:21;5.17;;;1.03;;
51558;SDS011;61650;48.882;2.092;2023-04-01T04:34:47;2.70;;;0.90;;
51558;SDS011;61650;48.882;2.092;2023-04-01T04:37:12;4.10;;;1.17;;
51558;SDS011;61650;48.882;2.092;2023-04-01T04:39:38;3.53;;;0.97;;
51558;SDS011;61650;48.882;2.092;2023-04-01T04:42:03;5.20;;;1.37;;
51558;SDS011;61650;48.882;2.092;2023-04-01T04:44:30;5.00;;;1.00;;
51558;SDS011;61650;48.882;2.092;2023-04-01T04:46:55;2.70;;;1.10;;
51558;SDS011;61650;48.882;2.092;2023-04-01T04:49:21;5.70;;;0.90;;
51558;SDS011;61650;48.882;2.092;2023-04-01T04:51:46;2.53;;;1.07;;
51558;SDS011;61650;48.882;2.092;2023-04-01T04:54:13;4.13;;;0.97;;
51558;SDS011;61650;48.882;2.092;2023-04-01T04:56:38;2.67;;;0.83;;
51558;SDS011;61650;48.882;2.092;2023-04-01T04:59:04;2.73;;;1.13;;
51558;SDS011;61650;48.882;2.092;2023-04-01T05:01:31;3.10;;;0.90;;
51558;SDS011;61650;48.882;2.092;2023-04-01T05:03:58;5.20;;;1.10;;
51558;SDS011;61650;48.882;2.092;2023-04-01T05:06:24;1.13;;;0.80;;
51558;SDS011;61650;48.882;2.092;2023-04-01T05:08:50;4.30;;;0.87;;
51558;SDS011;61650;48.882;2.092;2023-04-01T05:11:17;1.67;;;0.90;;
51558;SDS011;61650;48.882;2.092;2023-04-01T05:13:44;3.30;;;1.10;;
51558;SDS011;61650;48.882;2.092;2023-04-01T05:16:10;1.83;;;0.80;;
51558;SDS011;61650;48.882;2.092;2023-04-01T05:18:38;1.73;;;0.90;;
51558;SDS011;61650;48.882;2.092;2023-04-01T05:21:03;2.13;;;1.03;;
51558;SDS011;61650;48.882;2.092;2023-04-01T05:23:31;3.17;;;1.00;;
51558;SDS011;61650;48.882;2.092;2023-04-01T05:25:58;1.80;;;0.77;;
51558;SDS011;61650;48.882;2.092;2023-04-01T05:28:27;1.23;;;0.60;;
51558;SDS011;61650;48.882;2.092;2023-04-01T05:30:52;2.30;;;0.70;;
51558;SDS011;61650;48.882;2.092;2023-04-01T05:33:18;2.47;;;0.90;;
51558;SDS011;61650;48.882;2.092;2023-04-01T05:35:43;3.97;;;0.77;;
51558;SDS011;61650;48.882;2.092;2023-04-01T05:38:09;5.20;;;0.80;;
51558;SDS011;61650;48.882;2.092;2023-04-01T05:40:35;5.77;;;1.30;;
51558;SDS011;61650;48.882;2.092;2023-04-01T05:43:00;4.00;;;0.67;;
51558;SDS011;61650;48.882;2.092;2023-04-01T05:45:26;1.57;;;1.00;;
51558;SDS011;61650;48.882;2.092;2023-04-01T05:47:52;2.87;;;1.00;;
51558;SDS011;61650;48.882;2.092;2023-04-01T05:50:19;1.27;;;0.80;;
51558;SDS011;61650;48.882;2.092;2023-04-01T05:52:45;2.13;;;1.20;;
51558;SDS011;61650;48.882;2.092;2023-04-01T05:55:11;1.87;;;0.90;;
51558;SDS011;61650;48.882;2.092;2023-04-01T05:57:36;1.27;;;0.80;;
51558;SDS011;61650;48.882;2.092;2023-04-01T06:00:03;1.87;;;0.60;;
51558;SDS011;61650;48.882;2.092;2023-04-01T06:02:29;3.60;;;0.70;;
51558;SDS011;61650;48.882;2.092;2023-04-01T06:07:47;3.20;;;1.00;;
51558;SDS011;61650;48.882;2.092;2023-04-01T06:10:16;2.00;;;0.80;;
51558;SDS011;61650;48.882;2.092;2023-04-01T06:23:32;2.40;;;0.73;;
51558;SDS011;61650;48.882;2.092;2023-04-01T06:31:46;2.00;;;0.90;;
51558;SDS011;61650;48.882;2.092;2023-04-01T06:42:29;1.50;;;0.80;;
51558;SDS011;61650;48.882;2.092;2023-04-01T06:45:20;1.60;;;0.90;;
51558;SDS011;61650;48.882;2.092;2023-04-01T06:53:54;1.53;;;0.60;;
51558;SDS011;61650;48.882;2.092;2023-04-01T06:56:29;2.20;;;1.20;;
51558;SDS011;61650;48.882;2.092;2023-04-01T06:58:58;2.70;;;0.80;;
51558;SDS011;61650;48.882;2.092;2023-04-01T07:01:38;1.80;;;0.77;;
51558;SDS011;61650;48.882;2.092;2023-04-01T07:06:57;1.10;;;0.70;;
51558;SDS011;61650;48.882;2.092;2023-04-01T07:09:37;1.57;;;0.80;;
51558;SDS011;61650;48.882;2.092;2023-04-01T07:12:10;1.40;;;1.00;;
51558;SDS011;61650;48.882;2.092;2023-04-01T07:14:55;1.00;;;0.90;;
51558;SDS011;61650;48.882;2.092;2023-04-01T07:17:27;2.07;;;1.10;;
51558;SDS011;61650;48.882;2.092;2023-04-01T07:19:58;4.13;;;1.10;;
51558;SDS011;61650;48.882;2.092;2023-04-01T07:22:31;3.37;;;0.83;;
51558;SDS011;61650;48.882;2.092;2023-04-01T07:25:02;2.93;;;1.23;;
51558;SDS011;61650;48.882;2.092;2023-04-01T07:27:31;6.30;;;1.00;;
51558;SDS011;61650;48.882;2.092;2023-04-01T07:29:56;2.80;;;1.20;;
51558;SDS011;61650;48.882;2.092;2023-04-01T07:35:27;5.32;;;2.00;;
51558;SDS011;61650;48.882;2.092;2023-04-01T07:44:02;2.73;;;1.10;;
51558;SDS011;61650;48.882;2.092;2023-04-01T07:46:37;3.03;;;1.20;;
51558;SDS011;61650;48.882;2.092;2023-04-01T07:52:10;2.57;;;1.20;;
51558;SDS011;61650;48.882;2.092;2023-04-01T07:54:53;4.17;;;0.90;;
51558;SDS011;61650;48.882;2.092;2023-04-01T07:57:46;4.17;;;1.10;;
51558;SDS011;61650;48.882;2.092;2023-04-01T08:05:50;3.53;;;0.73;;
51558;SDS011;61650;48.882;2.092;2023-04-01T08:08:41;1.67;;;0.70;;
51558;SDS011;61650;48.882;2.092;2023-04-01T08:11:24;0.90;;;0.60;;
51558;SDS011;61650;48.882;2.092;2023-04-01T08:22:03;1.77;;;0.90;;
51558;SDS011;61650;48.882;2.092;2023-04-01T08:24:41;1.67;;;1.10;;
51558;SDS011;61650;48.882;2.092;2023-04-01T08:27:21;1.10;;;0.70;;
51558;SDS011;61650;48.882;2.092;2023-04-01T08:30:04;1.10;;;0.60;;
51558;SDS011;61650;48.882;2.092;2023-04-01T08:32:33;1.37;;;0.50;;
51558;SDS011;61650;48.882;2.092;2023-04-01T08:35:08;1.43;;;0.80;;
51558;SDS011;61650;48.882;2.092;2023-04-01T08:37:38;2.97;;;0.83;;
51558;SDS011;61650;48.882;2.092;2023-04-01T08:59:47;3.40;;;0.93;;
51558;SDS011;61650;48.882;2.092;2023-04-01T09:05:18;3.03;;;0.93;;
51558;SDS011;61650;48.882;2.092;2023-04-01T09:25:33;6.20;;;1.10;;
51558;SDS011;61650;48.882;2.092;2023-04-01T09:28:20;3.73;;;1.37;;
51558;SDS011;61650;48.882;2.092;2023-04-01T09:36:44;1.67;;;0.70;;
51558;SDS011;61650;48.882;2.092;2023-04-01T09:47:13;2.80;;;1.00;;
51558;SDS011;61650;48.882;2.092;2023-04-01T09:52:34;1.50;;;0.80;;
51558;SDS011;61650;48.882;2.092;2023-04-01T10:00:52;3.83;;;0.80;;
51558;SDS011;61650;48.882;2.092;2023-04-01T10:03:31;2.70;;;0.90;;
51558;SDS011;61650;48.882;2.092;2023-04-01T10:09:32;2.33;;;0.80;;
51558;SDS011;61650;48.882;2.092;2023-04-01T10:39:34;1.20;;;0.80;;
51558;SDS011;61650;48.882;2.092;2023-04-01T10:45:21;1.20;;;0.90;;
51558;SDS011;61650;48.882;2.092;2023-04-01T10:48:18;4.30;;;1.30;;
51558;SDS011;61650;48.882;2.092;2023-04-01T11:16:15;2.53;;;1.90;;
51558;SDS011;61650;48.882;2.092;2023-04-01T11:30:57;2.83;;;1.00;;
51558;SDS011;61650;48.882;2.092;2023-04-01T11:39:39;1.33;;;1.00;;
51558;SDS011;61650;48.882;2.092;2023-04-01T11:45:27;3.87;;;1.20;;
51558;SDS011;61650;48.882;2.092;2023-04-01T11:48:12;2.60;;;1.17;;
51558;SDS011;61650;48.882;2.092;2023-04-01T11:50:51;1.10;;;0.60;;
51558;SDS011;61650;48.882;2.092;2023-04-01T11:53:47;1.37;;;0.70;;
51558;SDS011;61650;48.882;2.092;2023-04-01T11:59:44;1.37;;;0.87;;
51558;SDS011;61650;48.882;2.092;2023-04-01T12:10:18;1.90;;;0.87;;
51558;SDS011;61650;48.882;2.092;2023-04-01T12:12:52;1.43;;;0.80;;
51558;SDS011;61650;48.882;2.092;2023-04-01T12:18:33;3.10;;;0.73;;
51558;SDS011;61650;48.882;2.092;2023-04-01T12:40:44;1.23;;;0.77;;
51558;SDS011;61650;48.882;2.092;2023-04-01T12:46:00;1.00;;;0.70;;
51558;SDS011;61650;48.882;2.092;2023-04-01T12:48:46;1.40;;;0.80;;
51558;SDS011;61650;48.882;2.092;2023-04-01T12:51:50;1.77;;;0.83;;
51558;SDS011;61650;48.882;2.092;2023-04-01T12:54:44;1.67;;;0.90;;
51558;SDS011;61650;48.882;2.092;2023-04-01T13:08:45;3.87;;;1.30;;
51558;SDS011;61650;48.882;2.092;2023-04-01T13:11:51;2.20;;;1.13;;
51558;SDS011;61650;48.882;2.092;2023-04-01T13:17:30;4.27;;;1.10;;
51558;SDS011;61650;48.882;2.092;2023-04-01T13:28:27;4.30;;;1.53;;
51558;SDS011;61650;48.882;2.092;2023-04-01T13:31:00;4.30;;;1.17;;
51558;SDS011;61650;48.882;2.092;2023-04-01T13:44:39;2.90;;;0.80;;
51558;SDS011;61650;48.882;2.092;2023-04-01T13:50:16;1.23;;;0.80;;
51558;SDS011;61650;48.882;2.092;2023-04-01T13:55:30;1.10;;;0.80;;
51558;SDS011;61650;48.882;2.092;2023-04-01T13:58:20;3.50;;;1.10;;
51558;SDS011;61650;48.882;2.092;2023-04-01T14:07:11;1.43;;;0.70;;
51558;SDS011;61650;48.882;2.092;2023-04-01T14:15:37;1.50;;;0.57;;
51558;SDS011;61650;48.882;2.092;2023-04-01T14:18:20;1.20;;;0.73;;
51558;SDS011;61650;48.882;2.092;2023-04-01T14:21:17;2.37;;;0.87;;
51558;SDS011;61650;48.882;2.092;2023-04-01T14:43:28;1.97;;;1.00;;
51558;SDS011;61650;48.882;2.092;2023-04-01T14:46:27;3.33;;;1.30;;
51558;SDS011;61650;48.882;2.092;2023-04-01T14:49:02;1.97;;;0.93;;
51558;SDS011;61650;48.882;2.092;2023-04-01T14:51:39;2.10;;;0.90;;
51558;SDS011;61650;48.882;2.092;2023-04-01T14:56:48;2.03;;;0.97;;
51558;SDS011;61650;48.882;2.092;2023-04-01T15:01:58;2.70;;;0.80;;
51558;SDS011;61650;48.882;2.092;2023-04-01T15:04:44;1.40;;;0.87;;
51558;SDS011;61650;48.882;2.092;2023-04-01T15:10:24;0.93;;;0.70;;
51558;SDS011;61650;48.882;2.092;2023-04-01T15:29:43;2.60;;;0.70;;
51558;SDS011;61650;48.882;2.092;2023-04-01T15:32:45;2.17;;;0.90;;
51558;SDS011;61650;48.882;2.092;2023-04-01T15:35:34;1.20;;;0.80;;
51558;SDS011;61650;48.882;2.092;2023-04-01T15:38:11;0.90;;;0.80;;
51558;SDS011;61650;48.882;2.092;2023-04-01T15:43:41;1.50;;;0.90;;
51558;SDS011;61650;48.882;2.092;2023-04-01T15:46:21;2.23;;;0.90;;
51558;SDS011;61650;48.882;2.092;2023-04-01T15:57:36;1.00;;;0.70;;
51558;SDS011;61650;48.882;2.092;2023-04-01T16:00:24;0.90;;;0.70;;
51558;SDS011;61650;48.882;2.092;2023-04-01T16:05:29;1.30;;;0.90;;
51558;SDS011;61650;48.882;2.092;2023-04-01T16:08:10;1.07;;;0.97;;
51558;SDS011;61650;48.882;2.092;2023-04-01T16:24:34;1.43;;;1.00;;
51558;SDS011;61650;48.882;2.092;2023-04-01T16:30:00;3.60;;;1.33;;
51558;SDS011;61650;48.882;2.092;2023-04-01T16:41:00;1.63;;;0.90;;
51558;SDS011;61650;48.882;2.092;2023-04-01T16:46:39;1.77;;;0.87;;
51558;SDS011;61650;48.882;2.092;2023-04-01T16:52:00;1.63;;;0.90;;
51558;SDS011;61650;48.882;2.092;2023-04-01T16:59:47;1.20;;;0.93;;
51558;SDS011;61650;48.882;2.092;2023-04-01T17:02:26;1.10;;;0.93;;
51558;SDS011;61650;48.882;2.092;2023-04-01T17:10:25;2.33;;;0.93;;
51558;SDS011;61650;48.882;2.092;2023-04-01T17:13:23;2.07;;;1.03;;
51558;SDS011;61650;48.882;2.092;2023-04-01T17:19:41;1.37;;;0.90;;
51558;SDS011;61650;48.882;2.092;2023-04-01T17:28:03;1.80;;;1.20;;
51558;SDS011;61650;48.882;2.092;2023-04-01T17:30:53;1.50;;;1.40;;
51558;SDS011;61650;48.882;2.092;2023-04-01T17:42:04;3.00;;;1.47;;
51558;SDS011;61650;48.882;2.092;2023-04-01T17:50:23;3.38;;;1.70;;
51558;SDS011;61650;48.882;2.092;2023-04-01T18:03:42;3.50;;;2.25;;
51558;SDS011;61650;48.882;2.092;2023-04-01T18:09:19;6.15;;;1.80;;
51558;SDS011;61650;48.882;2.092;2023-04-01T18:12:21;2.90;;;1.95;;
51558;SDS011;61650;48.882;2.092;2023-04-01T18:23:29;2.38;;;1.85;;
51558;SDS011;61650;48.882;2.092;2023-04-01T18:28:59;2.83;;;2.33;;
51558;SDS011;61650;48.882;2.092;2023-04-01T18:37:47;10.07;;;3.70;;
51558;SDS011;61650;48.882;2.092;2023-04-01T18:43:00;4.33;;;2.53;;
51558;SDS011;61650;48.882;2.092;2023-04-01T18:45:45;3.73;;;2.63;;
51558;SDS011;61650;48.882;2.092;2023-04-01T18:48:40;5.80;;;2.40;;
51558;SDS011;61650;48.882;2.092;2023-04-01T18:54:00;2.60;;;1.90;;
51558;SDS011;61650;48.882;2.092;2023-04-01T18:56:39;7.38;;;2.85;;
51558;SDS011;61650;48.882;2.092;2023-04-01T18:59:20;3.40;;;2.07;;
51558;SDS011;61650;48.882;2.092;2023-04-01T19:02:31;3.23;;;2.10;;
51558;SDS011;61650;48.882;2.092;2023-04-01T19:05:09;3.63;;;2.70;;
51558;SDS011;61650;48.882;2.092;2023-04-01T19:07:48;6.30;;;2.70;;
51558;SDS011;61650;48.882;2.092;2023-04-01T19:13:05;3.23;;;2.17;;
51558;SDS011;61650;48.882;2.092;2023-04-01T19:26:23;6.50;;;4.17;;
51558;SDS011;61650;48.882;2.092;2023-04-01T19:36:55;4.80;;;3.03;;
51558;SDS011;61650;48.882;2.092;2023-04-01T19:53:25;4.03;;;2.43;;
51558;SDS011;61650;48.882;2.092;2023-04-01T19:56:02;5.53;;;3.20;;
51558;SDS011;61650;48.882;2.092;2023-04-01T20:01:03;3.83;;;3.00;;
51558;SDS011;61650;48.882;2.092;2023-04-01T20:08:41;4.17;;;2.50;;
51558;SDS011;61650;48.882;2.092;2023-04-01T20:11:34;5.80;;;2.43;;
51558;SDS011;61650;48.882;2.092;2023-04-01T20:17:21;3.07;;;2.27;;
51558;SDS011;61650;48.882;2.092;2023-04-01T20:20:03;5.33;;;2.27;;
51558;SDS011;61650;48.882;2.092;2023-04-01T20:27:58;3.37;;;2.63;;
51558;SDS011;61650;48.882;2.092;2023-04-01T20:35:31;2.70;;;2.40;;
51558;SDS011;61650;48.882;2.092;2023-04-01T20:38:30;17.57;;;11.30;;
51558;SDS011;61650;48.882;2.092;2023-04-01T20:57:38;6.10;;;4.30;;
51558;SDS011;61650;48.882;2.092;2023-04-01T21:03:06;5.50;;;4.90;;
51558;SDS011;61650;48.882;2.092;2023-04-01T21:05:51;6.27;;;4.80;;
51558;SDS011;61650;48.882;2.092;2023-04-01T21:11:34;8.27;;;2.87;;
51558;SDS011;61650;48.882;2.092;2023-04-01T21:23:21;6.30;;;3.43;;
51558;SDS011;61650;48.882;2.092;2023-04-01T21:31:53;5.37;;;3.70;;
51558;SDS011;61650;48.882;2.092;2023-04-01T21:34:42;5.87;;;2.87;;
51558;SDS011;61650;48.882;2.092;2023-04-01T21:42:29;5.03;;;3.53;;
51558;SDS011;61650;48.882;2.092;2023-04-01T21:48:08;7.30;;;3.60;;
51558;SDS011;61650;48.882;2.092;2023-04-01T21:51:24;6.63;;;3.10;;
51558;SDS011;61650;48.882;2.092;2023-04-01T22:01:49;4.80;;;3.20;;
51558;SDS011;61650;48.882;2.092;2023-04-01T22:07:02;4.37;;;2.97;;
51558;SDS011;61650;48.882;2.092;2023-04-01T22:18:07;3.93;;;2.83;;
51558;SDS011;61650;48.882;2.092;2023-04-01T22:20:50;5.97;;;3.87;;
51558;SDS011;61650;48.882;2.092;2023-04-01T22:23:31;12.27;;;5.67;;
51558;SDS011;61650;48.882;2.092;2023-04-01T22:26:21;5.60;;;3.40;;
51558;SDS011;61650;48.882;2.092;2023-04-01T22:31:27;14.50;;;6.20;;
51558;SDS011;61650;48.882;2.092;2023-04-01T22:37:05;5.70;;;3.70;;
51558;SDS011;61650;48.882;2.092;2023-04-01T22:42:46;6.60;;;3.90;;
51558;SDS011;61650;48.882;2.092;2023-04-01T22:56:21;13.23;;;8.67;;
51558;SDS011;61650;48.882;2.092;2023-04-01T23:01:44;3.70;;;2.80;;
51558;SDS011;61650;48.882;2.092;2023-04-01T23:04:16;4.93;;;3.90;;
51558;SDS011;61650;48.882;2.092;2023-04-01T23:06:52;4.50;;;2.60;;
51558;SDS011;61650;48.882;2.092;2023-04-01T23:09:35;5.53;;;3.13;;
51558;SDS011;61650;48.882;2.092;2023-04-01T23:12:07;5.20;;;2.42;;
51558;SDS011;61650;48.882;2.092;2023-04-01T23:14:37;4.00;;;2.83;;
51558;SDS011;61650;48.882;2.092;2023-04-01T23:17:39;4.20;;;2.60;;
51558;SDS011;61650;48.882;2.092;2023-04-01T23:23:20;5.38;;;3.35;;
51558;SDS011;61650;48.882;2.092;2023-04-01T23:28:40;5.00;;;2.60;;
51558;SDS011;61650;48.882;2.092;2023-04-01T23:33:58;5.50;;;3.37;;
51558;SDS011;61650;48.882;2.092;2023-04-01T23:36:26;5.20;;;3.13;;
51558;SDS011;61650;48.882;2.092;2023-04-01T23:38:53;3.70;;;2.90;;
51558;SDS011;61650;48.882;2.092;2023-04-01T23:41:26;5.80;;;2.80;;
51558;SDS011;61650;48.882;2.092;2023-04-01T23:44:00;5.40;;;3.25;;
51558;SDS011;61650;48.882;2.092;2023-04-01T23:46:26;4.73;;;2.50;;
51558;SDS011;61650;48.882;2.092;2023-04-01T23:48:54;5.77;;;2.57;;
51558;SDS011;61650;48.882;2.092;2023-04-01T23:51:27;2.88;;;2.50;;
51558;SDS011;61650;48.882;2.092;2023-04-01T23:56:50;5.75;;;2.92;;
51558;SDS011;61650;48.882;2.092;2023-04-01T23:59:21;5.85;;;2.90;;
